sensor_id;sensor_type;location;lat;lon;timestamp;P1;durP1;ratioP1;P2;durP2;ratioP2
13415;SDS011;6779;50.150;8.680;2023-11-21T00:00:20;7.00;;;4.23;;
13415;SDS011;6779;50.150;8.680;2023-11-21T00:02:46;7.73;;;4.53;;
13415;SDS011;6779;50.150;8.680;2023-11-21T00:05:12;9.80;;;4.30;;
13415;SDS011;6779;50.150;8.680;2023-11-21T00:07:41;5.80;;;3.70;;
13415;SDS011;6779;50.150;8.680;2023-11-21T00:10:07;10.37;;;4.90;;
13415;SDS011;6779;50.150;8.680;2023-11-21T00:12:33;6.93;;;4.27;;
13415;SDS011;6779;50.150;8.680;2023-11-21T00:14:59;8.30;;;4.40;;
13415;SDS011;6779;50.150;8.680;2023-11-21T00:17:24;5.97;;;3.60;;
13415;SDS011;6779;50.150;8.680;2023-11-21T00:19:50;7.13;;;3.73;;
13415;SDS011;6779;50.150;8.680;2023-11-21T00:22:17;6.10;;;3.67;;
13415;SDS011;6779;50.150;8.680;2023-11-21T00:24:42;6.83;;;3.50;;
13415;SDS011;6779;50.150;8.680;2023-11-21T00:27:08;7.00;;;3.77;;
13415;SDS011;6779;50.150;8.680;2023-11-21T00:29:33;5.73;;;3.03;;
13415;SDS011;6779;50.150;8.680;2023-11-21T00:31:58;8.23;;;3.30;;
13415;SDS011;6779;50.150;8.680;2023-11-21T00:34:24;8.87;;;3.40;;
13415;SDS011;6779;50.150;8.680;2023-11-21T00:36:49;6.17;;;3.00;;
13415;SDS011;6779;50.150;8.680;2023-11-21T00:39:14;7.90;;;3.27;;
13415;SDS011;6779;50.150;8.680;2023-11-21T00:41:40;5.57;;;3.40;;
13415;SDS011;6779;50.150;8.680;2023-11-21T00:44:06;4.20;;;3.00;;
13415;SDS011;6779;50.150;8.680;2023-11-21T00:46:32;6.17;;;2.90;;
13415;SDS011;6779;50.150;8.680;2023-11-21T00:48:57;5.33;;;2.93;;
13415;SDS011;6779;50.150;8.680;2023-11-21T00:51:22;8.30;;;3.57;;
13415;SDS011;6779;50.150;8.680;2023-11-21T00:53:48;5.70;;;3.10;;
13415;SDS011;6779;50.150;8.680;2023-11-21T00:56:13;7.97;;;3.37;;
13415;SDS011;6779;50.150;8.680;2023-11-21T00:58:39;6.43;;;3.50;;
13415;SDS011;6779;50.150;8.680;2023-11-21T01:01:08;6.20;;;3.30;;
13415;SDS011;6779;50.150;8.680;2023-11-21T01:03:34;6.70;;;3.30;;
13415;SDS011;6779;50.150;8.680;2023-11-21T01:05:59;6.30;;;3.73;;
13415;SDS011;6779;50.150;8.680;2023-11-21T01:08:24;8.70;;;3.77;;
13415;SDS011;6779;50.150;8.680;2023-11-21T01:10:50;4.53;;;3.13;;
13415;SDS011;6779;50.150;8.680;2023-11-21T01:13:15;7.20;;;3.60;;
13415;SDS011;6779;50.150;8.680;2023-11-21T01:15:40;5.83;;;3.50;;
13415;SDS011;6779;50.150;8.680;2023-11-21T01:18:06;5.47;;;3.60;;
13415;SDS011;6779;50.150;8.680;2023-11-21T01:20:32;5.53;;;3.70;;
13415;SDS011;6779;50.150;8.680;2023-11-21T01:22:57;5.70;;;3.27;;
13415;SDS011;6779;50.150;8.680;2023-11-21T01:25:23;4.90;;;3.57;;
13415;SDS011;6779;50.150;8.680;2023-11-21T01:27:48;7.03;;;3.57;;
13415;SDS011;6779;50.150;8.680;2023-11-21T01:30:14;6.63;;;3.77;;
13415;SDS011;6779;50.150;8.680;2023-11-21T01:32:39;5.77;;;3.40;;
13415;SDS011;6779;50.150;8.680;2023-11-21T01:35:05;10.23;;;4.30;;
13415;SDS011;6779;50.150;8.680;2023-11-21T01:37:31;8.63;;;4.73;;
13415;SDS011;6779;50.150;8.680;2023-11-21T01:39:58;10.83;;;4.43;;
13415;SDS011;6779;50.150;8.680;2023-11-21T01:42:24;6.77;;;4.40;;
13415;SDS011;6779;50.150;8.680;2023-11-21T01:44:49;7.83;;;4.40;;
13415;SDS011;6779;50.150;8.680;2023-11-21T01:47:14;8.77;;;5.60;;
13415;SDS011;6779;50.150;8.680;2023-11-21T01:49:40;10.37;;;6.20;;
13415;SDS011;6779;50.150;8.680;2023-11-21T01:52:08;8.90;;;6.03;;
13415;SDS011;6779;50.150;8.680;2023-11-21T01:54:36;9.33;;;6.70;;
13415;SDS011;6779;50.150;8.680;2023-11-21T01:57:02;9.77;;;6.33;;
13415;SDS011;6779;50.150;8.680;2023-11-21T01:59:35;9.53;;;6.37;;
13415;SDS011;6779;50.150;8.680;2023-11-21T02:02:04;7.67;;;5.27;;
13415;SDS011;6779;50.150;8.680;2023-11-21T02:04:33;7.43;;;5.40;;
13415;SDS011;6779;50.150;8.680;2023-11-21T02:06:59;7.70;;;5.20;;
13415;SDS011;6779;50.150;8.680;2023-11-21T02:09:25;7.87;;;5.87;;
13415;SDS011;6779;50.150;8.680;2023-11-21T02:11:52;6.60;;;4.83;;
13415;SDS011;6779;50.150;8.680;2023-11-21T02:14:18;6.53;;;4.70;;
13415;SDS011;6779;50.150;8.680;2023-11-21T02:16:46;5.70;;;4.53;;
13415;SDS011;6779;50.150;8.680;2023-11-21T02:19:14;6.83;;;5.13;;
13415;SDS011;6779;50.150;8.680;2023-11-21T02:21:44;4.87;;;4.30;;
13415;SDS011;6779;50.150;8.680;2023-11-21T02:24:10;7.33;;;4.33;;
13415;SDS011;6779;50.150;8.680;2023-11-21T02:26:35;4.60;;;4.20;;
13415;SDS011;6779;50.150;8.680;2023-11-21T02:29:01;6.27;;;4.43;;
13415;SDS011;6779;50.150;8.680;2023-11-21T02:31:29;4.80;;;3.93;;
13415;SDS011;6779;50.150;8.680;2023-11-21T02:33:55;3.27;;;2.97;;
13415;SDS011;6779;50.150;8.680;2023-11-21T02:36:20;5.67;;;3.33;;
13415;SDS011;6779;50.150;8.680;2023-11-21T02:38:46;5.00;;;3.50;;
13415;SDS011;6779;50.150;8.680;2023-11-21T02:41:12;6.53;;;3.53;;
13415;SDS011;6779;50.150;8.680;2023-11-21T02:43:37;5.13;;;3.93;;
13415;SDS011;6779;50.150;8.680;2023-11-21T02:46:03;4.13;;;3.60;;
13415;SDS011;6779;50.150;8.680;2023-11-21T02:48:29;4.87;;;3.87;;
13415;SDS011;6779;50.150;8.680;2023-11-21T02:50:55;5.13;;;3.60;;
13415;SDS011;6779;50.150;8.680;2023-11-21T02:53:21;3.60;;;3.30;;
13415;SDS011;6779;50.150;8.680;2023-11-21T02:55:46;3.60;;;3.30;;
13415;SDS011;6779;50.150;8.680;2023-11-21T02:58:11;5.37;;;3.60;;
13415;SDS011;6779;50.150;8.680;2023-11-21T03:00:36;3.10;;;2.80;;
13415;SDS011;6779;50.150;8.680;2023-11-21T03:03:02;4.03;;;3.10;;
13415;SDS011;6779;50.150;8.680;2023-11-21T03:05:29;4.57;;;2.83;;
13415;SDS011;6779;50.150;8.680;2023-11-21T03:07:54;3.57;;;3.20;;
13415;SDS011;6779;50.150;8.680;2023-11-21T03:10:20;3.67;;;3.20;;
13415;SDS011;6779;50.150;8.680;2023-11-21T03:12:45;3.40;;;3.00;;
13415;SDS011;6779;50.150;8.680;2023-11-21T03:15:10;3.93;;;3.30;;
13415;SDS011;6779;50.150;8.680;2023-11-21T03:17:36;3.07;;;2.83;;
13415;SDS011;6779;50.150;8.680;2023-11-21T03:20:01;3.80;;;2.70;;
13415;SDS011;6779;50.150;8.680;2023-11-21T03:22:29;3.47;;;3.00;;
13415;SDS011;6779;50.150;8.680;2023-11-21T03:24:54;5.80;;;3.23;;
13415;SDS011;6779;50.150;8.680;2023-11-21T03:27:20;3.87;;;3.43;;
13415;SDS011;6779;50.150;8.680;2023-11-21T03:29:45;3.37;;;3.07;;
13415;SDS011;6779;50.150;8.680;2023-11-21T03:32:11;5.57;;;3.20;;
13415;SDS011;6779;50.150;8.680;2023-11-21T03:34:48;5.47;;;3.20;;
13415;SDS011;6779;50.150;8.680;2023-11-21T03:37:18;5.10;;;3.20;;
13415;SDS011;6779;50.150;8.680;2023-11-21T03:39:45;3.60;;;2.90;;
13415;SDS011;6779;50.150;8.680;2023-11-21T03:42:11;3.83;;;3.07;;
13415;SDS011;6779;50.150;8.680;2023-11-21T03:44:36;4.40;;;3.20;;
13415;SDS011;6779;50.150;8.680;2023-11-21T03:47:01;3.67;;;2.90;;
13415;SDS011;6779;50.150;8.680;2023-11-21T03:49:27;3.73;;;3.37;;
13415;SDS011;6779;50.150;8.680;2023-11-21T03:51:54;4.30;;;3.37;;
13415;SDS011;6779;50.150;8.680;2023-11-21T03:54:19;3.97;;;2.90;;
13415;SDS011;6779;50.150;8.680;2023-11-21T03:56:44;3.67;;;3.33;;
13415;SDS011;6779;50.150;8.680;2023-11-21T03:59:10;4.83;;;3.17;;
13415;SDS011;6779;50.150;8.680;2023-11-21T04:01:35;3.40;;;3.10;;
13415;SDS011;6779;50.150;8.680;2023-11-21T04:04:00;5.23;;;3.70;;
13415;SDS011;6779;50.150;8.680;2023-11-21T04:06:26;4.80;;;3.87;;
13415;SDS011;6779;50.150;8.680;2023-11-21T04:08:51;4.57;;;3.87;;
13415;SDS011;6779;50.150;8.680;2023-11-21T04:11:16;4.57;;;3.70;;
13415;SDS011;6779;50.150;8.680;2023-11-21T04:13:42;8.10;;;4.20;;
13415;SDS011;6779;50.150;8.680;2023-11-21T04:16:07;6.57;;;4.30;;
13415;SDS011;6779;50.150;8.680;2023-11-21T04:18:34;5.00;;;4.50;;
13415;SDS011;6779;50.150;8.680;2023-11-21T04:21:00;5.73;;;4.20;;
13415;SDS011;6779;50.150;8.680;2023-11-21T04:23:26;4.47;;;4.07;;
13415;SDS011;6779;50.150;8.680;2023-11-21T04:25:51;5.73;;;4.80;;
13415;SDS011;6779;50.150;8.680;2023-11-21T04:28:19;6.40;;;4.70;;
13415;SDS011;6779;50.150;8.680;2023-11-21T04:30:44;7.27;;;4.90;;
13415;SDS011;6779;50.150;8.680;2023-11-21T04:33:10;6.03;;;5.20;;
13415;SDS011;6779;50.150;8.680;2023-11-21T04:35:35;7.03;;;5.10;;
13415;SDS011;6779;50.150;8.680;2023-11-21T04:38:00;9.13;;;5.20;;
13415;SDS011;6779;50.150;8.680;2023-11-21T04:40:26;7.50;;;6.07;;
13415;SDS011;6779;50.150;8.680;2023-11-21T04:42:52;7.40;;;5.90;;
13415;SDS011;6779;50.150;8.680;2023-11-21T04:45:17;6.80;;;5.60;;
13415;SDS011;6779;50.150;8.680;2023-11-21T04:47:42;8.07;;;6.40;;
13415;SDS011;6779;50.150;8.680;2023-11-21T04:50:08;8.53;;;6.57;;
13415;SDS011;6779;50.150;8.680;2023-11-21T04:52:34;10.03;;;7.60;;
13415;SDS011;6779;50.150;8.680;2023-11-21T04:54:59;12.87;;;8.60;;
13415;SDS011;6779;50.150;8.680;2023-11-21T04:57:26;10.27;;;6.93;;
13415;SDS011;6779;50.150;8.680;2023-11-21T04:59:53;11.07;;;8.03;;
13415;SDS011;6779;50.150;8.680;2023-11-21T05:02:18;18.17;;;10.50;;
13415;SDS011;6779;50.150;8.680;2023-11-21T05:04:44;16.47;;;11.17;;
13415;SDS011;6779;50.150;8.680;2023-11-21T05:07:09;22.03;;;12.83;;
13415;SDS011;6779;50.150;8.680;2023-11-21T05:09:35;24.83;;;14.47;;
13415;SDS011;6779;50.150;8.680;2023-11-21T05:12:01;23.97;;;13.90;;
13415;SDS011;6779;50.150;8.680;2023-11-21T05:14:27;23.40;;;13.80;;
13415;SDS011;6779;50.150;8.680;2023-11-21T05:16:52;26.97;;;15.10;;
13415;SDS011;6779;50.150;8.680;2023-11-21T05:19:17;24.73;;;14.33;;
13415;SDS011;6779;50.150;8.680;2023-11-21T05:21:43;27.33;;;15.20;;
13415;SDS011;6779;50.150;8.680;2023-11-21T05:24:08;30.17;;;16.07;;
13415;SDS011;6779;50.150;8.680;2023-11-21T05:26:34;28.13;;;15.30;;
13415;SDS011;6779;50.150;8.680;2023-11-21T05:28:59;30.47;;;16.57;;
13415;SDS011;6779;50.150;8.680;2023-11-21T05:31:25;26.53;;;15.80;;
13415;SDS011;6779;50.150;8.680;2023-11-21T05:33:50;30.53;;;15.60;;
13415;SDS011;6779;50.150;8.680;2023-11-21T05:36:15;33.70;;;16.77;;
13415;SDS011;6779;50.150;8.680;2023-11-21T05:38:40;29.43;;;16.40;;
13415;SDS011;6779;50.150;8.680;2023-11-21T05:41:06;28.60;;;16.30;;
13415;SDS011;6779;50.150;8.680;2023-11-21T05:43:32;29.63;;;15.87;;
13415;SDS011;6779;50.150;8.680;2023-11-21T05:46:00;32.97;;;17.13;;
13415;SDS011;6779;50.150;8.680;2023-11-21T05:48:25;28.90;;;16.80;;
13415;SDS011;6779;50.150;8.680;2023-11-21T05:50:50;29.03;;;16.47;;
13415;SDS011;6779;50.150;8.680;2023-11-21T05:53:16;35.23;;;17.50;;
13415;SDS011;6779;50.150;8.680;2023-11-21T05:55:41;33.20;;;17.77;;
13415;SDS011;6779;50.150;8.680;2023-11-21T05:58:07;31.53;;;16.97;;
13415;SDS011;6779;50.150;8.680;2023-11-21T06:00:32;27.73;;;15.93;;
13415;SDS011;6779;50.150;8.680;2023-11-21T06:02:58;29.73;;;16.37;;
13415;SDS011;6779;50.150;8.680;2023-11-21T06:05:24;29.27;;;15.73;;
13415;SDS011;6779;50.150;8.680;2023-11-21T06:07:50;23.93;;;13.27;;
13415;SDS011;6779;50.150;8.680;2023-11-21T06:10:17;19.03;;;10.83;;
13415;SDS011;6779;50.150;8.680;2023-11-21T06:12:44;17.83;;;10.27;;
13415;SDS011;6779;50.150;8.680;2023-11-21T06:15:10;16.13;;;8.77;;
13415;SDS011;6779;50.150;8.680;2023-11-21T06:17:38;13.87;;;8.10;;
13415;SDS011;6779;50.150;8.680;2023-11-21T06:20:07;9.20;;;6.03;;
13415;SDS011;6779;50.150;8.680;2023-11-21T06:22:39;9.03;;;5.50;;
13415;SDS011;6779;50.150;8.680;2023-11-21T06:25:05;9.07;;;5.80;;
13415;SDS011;6779;50.150;8.680;2023-11-21T06:27:33;8.23;;;6.00;;
13415;SDS011;6779;50.150;8.680;2023-11-21T06:29:59;7.03;;;5.07;;
13415;SDS011;6779;50.150;8.680;2023-11-21T06:32:24;8.73;;;4.83;;
13415;SDS011;6779;50.150;8.680;2023-11-21T06:34:51;6.50;;;4.93;;
13415;SDS011;6779;50.150;8.680;2023-11-21T06:37:19;7.87;;;4.40;;
13415;SDS011;6779;50.150;8.680;2023-11-21T06:39:46;7.13;;;4.83;;
13415;SDS011;6779;50.150;8.680;2023-11-21T06:42:11;9.70;;;5.40;;
13415;SDS011;6779;50.150;8.680;2023-11-21T06:44:36;7.77;;;5.67;;
13415;SDS011;6779;50.150;8.680;2023-11-21T06:47:02;9.07;;;5.83;;
13415;SDS011;6779;50.150;8.680;2023-11-21T06:49:28;8.17;;;6.30;;
13415;SDS011;6779;50.150;8.680;2023-11-21T06:51:53;9.23;;;6.37;;
13415;SDS011;6779;50.150;8.680;2023-11-21T06:54:20;9.83;;;6.60;;
13415;SDS011;6779;50.150;8.680;2023-11-21T06:56:45;9.17;;;6.97;;
13415;SDS011;6779;50.150;8.680;2023-11-21T06:59:12;11.23;;;6.67;;
13415;SDS011;6779;50.150;8.680;2023-11-21T07:01:37;12.83;;;7.97;;
13415;SDS011;6779;50.150;8.680;2023-11-21T07:04:06;11.43;;;7.53;;
13415;SDS011;6779;50.150;8.680;2023-11-21T07:06:31;14.07;;;8.63;;
13415;SDS011;6779;50.150;8.680;2023-11-21T07:08:57;13.30;;;8.80;;
13415;SDS011;6779;50.150;8.680;2023-11-21T07:11:23;14.40;;;8.90;;
13415;SDS011;6779;50.150;8.680;2023-11-21T07:13:48;11.53;;;8.70;;
13415;SDS011;6779;50.150;8.680;2023-11-21T07:16:14;12.27;;;8.30;;
13415;SDS011;6779;50.150;8.680;2023-11-21T07:18:40;14.83;;;8.80;;
13415;SDS011;6779;50.150;8.680;2023-11-21T07:21:06;13.10;;;9.03;;
13415;SDS011;6779;50.150;8.680;2023-11-21T07:23:32;12.97;;;8.60;;
13415;SDS011;6779;50.150;8.680;2023-11-21T07:25:57;13.03;;;9.40;;
13415;SDS011;6779;50.150;8.680;2023-11-21T07:28:23;15.07;;;9.13;;
13415;SDS011;6779;50.150;8.680;2023-11-21T07:30:49;12.53;;;8.93;;
13415;SDS011;6779;50.150;8.680;2023-11-21T07:33:14;13.43;;;8.67;;
13415;SDS011;6779;50.150;8.680;2023-11-21T07:35:39;14.43;;;9.77;;
13415;SDS011;6779;50.150;8.680;2023-11-21T07:38:05;15.27;;;10.40;;
13415;SDS011;6779;50.150;8.680;2023-11-21T07:40:30;14.33;;;9.60;;
13415;SDS011;6779;50.150;8.680;2023-11-21T07:42:55;18.00;;;10.03;;
13415;SDS011;6779;50.150;8.680;2023-11-21T07:45:22;15.93;;;9.73;;
13415;SDS011;6779;50.150;8.680;2023-11-21T07:47:47;12.37;;;9.77;;
13415;SDS011;6779;50.150;8.680;2023-11-21T07:50:13;16.80;;;9.90;;
13415;SDS011;6779;50.150;8.680;2023-11-21T07:52:38;15.90;;;10.03;;
13415;SDS011;6779;50.150;8.680;2023-11-21T07:55:04;14.17;;;10.07;;
13415;SDS011;6779;50.150;8.680;2023-11-21T07:57:30;15.07;;;10.63;;
13415;SDS011;6779;50.150;8.680;2023-11-21T07:59:55;17.33;;;10.33;;
13415;SDS011;6779;50.150;8.680;2023-11-21T08:02:21;16.70;;;10.00;;
13415;SDS011;6779;50.150;8.680;2023-11-21T08:04:46;15.23;;;10.30;;
13415;SDS011;6779;50.150;8.680;2023-11-21T08:07:14;15.33;;;10.60;;
13415;SDS011;6779;50.150;8.680;2023-11-21T08:09:39;16.27;;;10.40;;
13415;SDS011;6779;50.150;8.680;2023-11-21T08:12:05;17.60;;;10.70;;
13415;SDS011;6779;50.150;8.680;2023-11-21T08:14:30;14.23;;;10.20;;
13415;SDS011;6779;50.150;8.680;2023-11-21T08:16:56;13.47;;;9.73;;
13415;SDS011;6779;50.150;8.680;2023-11-21T08:19:22;16.20;;;10.53;;
13415;SDS011;6779;50.150;8.680;2023-11-21T08:21:50;14.77;;;9.70;;
13415;SDS011;6779;50.150;8.680;2023-11-21T08:24:15;15.57;;;9.87;;
13415;SDS011;6779;50.150;8.680;2023-11-21T08:26:41;15.03;;;10.37;;
13415;SDS011;6779;50.150;8.680;2023-11-21T08:29:06;18.83;;;10.93;;
13415;SDS011;6779;50.150;8.680;2023-11-21T08:31:34;16.07;;;10.83;;
13415;SDS011;6779;50.150;8.680;2023-11-21T08:33:59;14.83;;;9.53;;
13415;SDS011;6779;50.150;8.680;2023-11-21T08:36:28;14.07;;;10.20;;
13415;SDS011;6779;50.150;8.680;2023-11-21T08:38:53;16.27;;;10.30;;
13415;SDS011;6779;50.150;8.680;2023-11-21T08:41:18;14.57;;;9.80;;
13415;SDS011;6779;50.150;8.680;2023-11-21T08:43:47;15.53;;;9.70;;
13415;SDS011;6779;50.150;8.680;2023-11-21T08:46:13;15.60;;;9.07;;
13415;SDS011;6779;50.150;8.680;2023-11-21T08:48:38;13.83;;;9.63;;
13415;SDS011;6779;50.150;8.680;2023-11-21T08:51:04;18.37;;;10.50;;
13415;SDS011;6779;50.150;8.680;2023-11-21T08:53:29;12.07;;;8.97;;
13415;SDS011;6779;50.150;8.680;2023-11-21T08:55:56;13.03;;;8.80;;
13415;SDS011;6779;50.150;8.680;2023-11-21T08:58:21;13.63;;;8.30;;
13415;SDS011;6779;50.150;8.680;2023-11-21T09:00:46;12.33;;;8.70;;
13415;SDS011;6779;50.150;8.680;2023-11-21T09:03:12;13.00;;;8.63;;
13415;SDS011;6779;50.150;8.680;2023-11-21T09:05:38;10.93;;;7.20;;
13415;SDS011;6779;50.150;8.680;2023-11-21T09:08:04;14.20;;;7.93;;
13415;SDS011;6779;50.150;8.680;2023-11-21T09:10:30;12.17;;;7.67;;
13415;SDS011;6779;50.150;8.680;2023-11-21T09:12:55;12.53;;;7.00;;
13415;SDS011;6779;50.150;8.680;2023-11-21T09:15:20;10.73;;;6.87;;
13415;SDS011;6779;50.150;8.680;2023-11-21T09:17:46;13.10;;;7.30;;
13415;SDS011;6779;50.150;8.680;2023-11-21T09:20:11;10.87;;;7.50;;
13415;SDS011;6779;50.150;8.680;2023-11-21T09:22:37;10.23;;;6.33;;
13415;SDS011;6779;50.150;8.680;2023-11-21T09:25:02;9.37;;;6.40;;
13415;SDS011;6779;50.150;8.680;2023-11-21T09:27:30;9.70;;;5.77;;
13415;SDS011;6779;50.150;8.680;2023-11-21T09:29:56;10.20;;;5.97;;
13415;SDS011;6779;50.150;8.680;2023-11-21T09:32:23;10.47;;;6.17;;
13415;SDS011;6779;50.150;8.680;2023-11-21T09:34:48;10.97;;;5.60;;
13415;SDS011;6779;50.150;8.680;2023-11-21T09:37:17;10.50;;;6.00;;
13415;SDS011;6779;50.150;8.680;2023-11-21T09:39:42;9.60;;;6.23;;
13415;SDS011;6779;50.150;8.680;2023-11-21T09:44:45;11.73;;;6.23;;
13415;SDS011;6779;50.150;8.680;2023-11-21T09:47:20;8.60;;;5.97;;
13415;SDS011;6779;50.150;8.680;2023-11-21T09:49:47;12.67;;;7.27;;
13415;SDS011;6779;50.150;8.680;2023-11-21T09:52:16;12.67;;;6.70;;
13415;SDS011;6779;50.150;8.680;2023-11-21T09:54:47;10.67;;;6.47;;
13415;SDS011;6779;50.150;8.680;2023-11-21T09:57:14;12.33;;;7.00;;
13415;SDS011;6779;50.150;8.680;2023-11-21T09:59:40;10.90;;;6.83;;
13415;SDS011;6779;50.150;8.680;2023-11-21T10:02:06;11.40;;;7.37;;
13415;SDS011;6779;50.150;8.680;2023-11-21T10:04:32;10.63;;;6.80;;
13415;SDS011;6779;50.150;8.680;2023-11-21T10:06:57;10.93;;;6.90;;
13415;SDS011;6779;50.150;8.680;2023-11-21T10:09:23;10.87;;;6.90;;
13415;SDS011;6779;50.150;8.680;2023-11-21T10:11:52;11.07;;;6.93;;
13415;SDS011;6779;50.150;8.680;2023-11-21T10:14:17;8.27;;;5.90;;
13415;SDS011;6779;50.150;8.680;2023-11-21T10:16:44;10.80;;;5.33;;
13415;SDS011;6779;50.150;8.680;2023-11-21T10:19:09;7.23;;;5.40;;
13415;SDS011;6779;50.150;8.680;2023-11-21T10:21:35;11.10;;;6.23;;
13415;SDS011;6779;50.150;8.680;2023-11-21T10:24:01;10.70;;;5.70;;
13415;SDS011;6779;50.150;8.680;2023-11-21T10:26:27;10.27;;;6.20;;
13415;SDS011;6779;50.150;8.680;2023-11-21T10:28:59;9.37;;;6.17;;
13415;SDS011;6779;50.150;8.680;2023-11-21T10:31:28;8.40;;;5.60;;
13415;SDS011;6779;50.150;8.680;2023-11-21T10:33:55;13.33;;;6.10;;
13415;SDS011;6779;50.150;8.680;2023-11-21T10:36:36;12.13;;;6.40;;
13415;SDS011;6779;50.150;8.680;2023-11-21T10:39:01;11.50;;;6.17;;
13415;SDS011;6779;50.150;8.680;2023-11-21T10:41:27;9.87;;;6.73;;
13415;SDS011;6779;50.150;8.680;2023-11-21T10:43:53;12.53;;;6.07;;
13415;SDS011;6779;50.150;8.680;2023-11-21T10:46:20;11.00;;;7.10;;
13415;SDS011;6779;50.150;8.680;2023-11-21T10:48:46;8.60;;;7.00;;
13415;SDS011;6779;50.150;8.680;2023-11-21T10:51:11;9.83;;;7.10;;
13415;SDS011;6779;50.150;8.680;2023-11-21T10:53:40;12.43;;;7.43;;
13415;SDS011;6779;50.150;8.680;2023-11-21T10:56:08;12.37;;;6.43;;
13415;SDS011;6779;50.150;8.680;2023-11-21T10:58:42;7.87;;;6.00;;
13415;SDS011;6779;50.150;8.680;2023-11-21T11:01:07;7.40;;;5.17;;
13415;SDS011;6779;50.150;8.680;2023-11-21T11:03:33;9.43;;;5.63;;
13415;SDS011;6779;50.150;8.680;2023-11-21T11:06:01;7.93;;;4.67;;
13415;SDS011;6779;50.150;8.680;2023-11-21T11:08:27;4.77;;;4.20;;
13415;SDS011;6779;50.150;8.680;2023-11-21T11:10:53;6.83;;;4.57;;
13415;SDS011;6779;50.150;8.680;2023-11-21T11:13:18;5.70;;;4.83;;
13415;SDS011;6779;50.150;8.680;2023-11-21T11:15:46;6.97;;;5.47;;
13415;SDS011;6779;50.150;8.680;2023-11-21T11:18:12;5.73;;;4.80;;
13415;SDS011;6779;50.150;8.680;2023-11-21T11:20:38;5.97;;;4.77;;
13415;SDS011;6779;50.150;8.680;2023-11-21T11:23:10;6.17;;;4.50;;
13415;SDS011;6779;50.150;8.680;2023-11-21T11:26:08;7.00;;;5.33;;
13415;SDS011;6779;50.150;8.680;2023-11-21T11:31:45;8.97;;;5.83;;
13415;SDS011;6779;50.150;8.680;2023-11-21T11:37:03;11.60;;;7.17;;
13415;SDS011;6779;50.150;8.680;2023-11-21T11:39:31;9.27;;;6.73;;
13415;SDS011;6779;50.150;8.680;2023-11-21T11:42:01;7.13;;;5.80;;
13415;SDS011;6779;50.150;8.680;2023-11-21T11:47:20;9.07;;;5.83;;
13415;SDS011;6779;50.150;8.680;2023-11-21T11:50:05;9.23;;;6.40;;
13415;SDS011;6779;50.150;8.680;2023-11-21T11:52:48;8.77;;;6.57;;
13415;SDS011;6779;50.150;8.680;2023-11-21T11:55:17;11.07;;;7.47;;
13415;SDS011;6779;50.150;8.680;2023-11-21T11:57:43;9.87;;;7.40;;
13415;SDS011;6779;50.150;8.680;2023-11-21T12:00:18;8.63;;;6.60;;
13415;SDS011;6779;50.150;8.680;2023-11-21T12:02:54;8.53;;;6.40;;
13415;SDS011;6779;50.150;8.680;2023-11-21T12:05:22;10.47;;;6.47;;
13415;SDS011;6779;50.150;8.680;2023-11-21T12:07:55;10.47;;;6.13;;
13415;SDS011;6779;50.150;8.680;2023-11-21T12:10:26;8.43;;;6.33;;
13415;SDS011;6779;50.150;8.680;2023-11-21T12:12:54;12.93;;;7.13;;
13415;SDS011;6779;50.150;8.680;2023-11-21T12:15:20;8.90;;;6.50;;
13415;SDS011;6779;50.150;8.680;2023-11-21T12:17:46;11.27;;;6.97;;
13415;SDS011;6779;50.150;8.680;2023-11-21T12:20:12;13.23;;;6.07;;
13415;SDS011;6779;50.150;8.680;2023-11-21T12:22:51;10.90;;;7.20;;
13415;SDS011;6779;50.150;8.680;2023-11-21T12:25:23;10.87;;;7.10;;
13415;SDS011;6779;50.150;8.680;2023-11-21T12:27:50;10.07;;;6.73;;
13415;SDS011;6779;50.150;8.680;2023-11-21T12:30:16;9.50;;;6.30;;
13415;SDS011;6779;50.150;8.680;2023-11-21T12:32:55;7.53;;;5.73;;
13415;SDS011;6779;50.150;8.680;2023-11-21T12:35:24;10.87;;;6.07;;
13415;SDS011;6779;50.150;8.680;2023-11-21T12:37:51;9.40;;;5.57;;
13415;SDS011;6779;50.150;8.680;2023-11-21T12:40:17;7.77;;;5.83;;
13415;SDS011;6779;50.150;8.680;2023-11-21T12:42:43;10.00;;;5.57;;
13415;SDS011;6779;50.150;8.680;2023-11-21T12:45:30;6.90;;;5.43;;
13415;SDS011;6779;50.150;8.680;2023-11-21T12:50:33;8.30;;;6.00;;
13415;SDS011;6779;50.150;8.680;2023-11-21T12:53:05;9.07;;;5.83;;
13415;SDS011;6779;50.150;8.680;2023-11-21T12:55:33;7.20;;;5.57;;
13415;SDS011;6779;50.150;8.680;2023-11-21T12:58:02;8.90;;;6.30;;
13415;SDS011;6779;50.150;8.680;2023-11-21T13:00:38;9.90;;;6.53;;
13415;SDS011;6779;50.150;8.680;2023-11-21T13:03:05;7.77;;;6.70;;
13415;SDS011;6779;50.150;8.680;2023-11-21T13:05:35;11.53;;;6.43;;
13415;SDS011;6779;50.150;8.680;2023-11-21T13:08:05;8.97;;;6.07;;
13415;SDS011;6779;50.150;8.680;2023-11-21T13:10:35;7.90;;;6.27;;
13415;SDS011;6779;50.150;8.680;2023-11-21T13:13:07;9.20;;;6.83;;
13415;SDS011;6779;50.150;8.680;2023-11-21T13:15:34;12.03;;;6.87;;
13415;SDS011;6779;50.150;8.680;2023-11-21T13:18:01;10.83;;;6.90;;
13415;SDS011;6779;50.150;8.680;2023-11-21T13:20:27;10.47;;;6.67;;
13415;SDS011;6779;50.150;8.680;2023-11-21T13:22:54;8.27;;;6.03;;
13415;SDS011;6779;50.150;8.680;2023-11-21T13:25:24;9.93;;;6.00;;
13415;SDS011;6779;50.150;8.680;2023-11-21T13:27:55;12.87;;;6.30;;
13415;SDS011;6779;50.150;8.680;2023-11-21T13:30:22;10.43;;;6.83;;
13415;SDS011;6779;50.150;8.680;2023-11-21T13:32:52;7.77;;;5.53;;
13415;SDS011;6779;50.150;8.680;2023-11-21T13:35:22;9.40;;;5.63;;
13415;SDS011;6779;50.150;8.680;2023-11-21T13:37:56;8.97;;;5.73;;
13415;SDS011;6779;50.150;8.680;2023-11-21T13:40:25;8.80;;;5.50;;
13415;SDS011;6779;50.150;8.680;2023-11-21T13:42:55;10.13;;;5.80;;
13415;SDS011;6779;50.150;8.680;2023-11-21T13:45:24;8.77;;;5.90;;
13415;SDS011;6779;50.150;8.680;2023-11-21T13:47:53;10.20;;;5.83;;
13415;SDS011;6779;50.150;8.680;2023-11-21T13:50:22;10.00;;;5.90;;
13415;SDS011;6779;50.150;8.680;2023-11-21T13:52:52;12.87;;;5.97;;
13415;SDS011;6779;50.150;8.680;2023-11-21T13:55:18;8.30;;;6.03;;
13415;SDS011;6779;50.150;8.680;2023-11-21T13:57:43;8.97;;;5.57;;
13415;SDS011;6779;50.150;8.680;2023-11-21T14:00:12;8.83;;;5.97;;
13415;SDS011;6779;50.150;8.680;2023-11-21T14:02:58;11.57;;;6.90;;
13415;SDS011;6779;50.150;8.680;2023-11-21T14:05:27;8.07;;;6.23;;
13415;SDS011;6779;50.150;8.680;2023-11-21T14:07:56;12.67;;;6.67;;
13415;SDS011;6779;50.150;8.680;2023-11-21T14:10:27;12.97;;;7.53;;
13415;SDS011;6779;50.150;8.680;2023-11-21T14:13:01;12.07;;;7.43;;
13415;SDS011;6779;50.150;8.680;2023-11-21T14:15:27;13.37;;;7.57;;
13415;SDS011;6779;50.150;8.680;2023-11-21T14:17:54;14.90;;;7.33;;
13415;SDS011;6779;50.150;8.680;2023-11-21T14:20:20;14.17;;;7.33;;
13415;SDS011;6779;50.150;8.680;2023-11-21T14:22:46;11.53;;;6.97;;
13415;SDS011;6779;50.150;8.680;2023-11-21T14:25:11;12.00;;;7.30;;
13415;SDS011;6779;50.150;8.680;2023-11-21T14:27:39;12.73;;;8.37;;
13415;SDS011;6779;50.150;8.680;2023-11-21T14:30:05;13.07;;;7.73;;
13415;SDS011;6779;50.150;8.680;2023-11-21T14:32:31;10.73;;;7.50;;
13415;SDS011;6779;50.150;8.680;2023-11-21T14:34:56;11.60;;;7.50;;
13415;SDS011;6779;50.150;8.680;2023-11-21T14:37:22;16.10;;;8.33;;
13415;SDS011;6779;50.150;8.680;2023-11-21T14:39:48;12.77;;;7.70;;
13415;SDS011;6779;50.150;8.680;2023-11-21T14:42:14;13.20;;;7.53;;
13415;SDS011;6779;50.150;8.680;2023-11-21T14:44:40;13.23;;;7.87;;
13415;SDS011;6779;50.150;8.680;2023-11-21T14:47:07;13.60;;;8.80;;
13415;SDS011;6779;50.150;8.680;2023-11-21T14:49:40;14.80;;;8.90;;
13415;SDS011;6779;50.150;8.680;2023-11-21T14:52:18;17.43;;;9.80;;
13415;SDS011;6779;50.150;8.680;2023-11-21T14:54:59;13.73;;;8.33;;
13415;SDS011;6779;50.150;8.680;2023-11-21T14:57:44;15.80;;;9.60;;
13415;SDS011;6779;50.150;8.680;2023-11-21T15:00:14;12.37;;;7.80;;
13415;SDS011;6779;50.150;8.680;2023-11-21T15:03:00;15.57;;;8.43;;
13415;SDS011;6779;50.150;8.680;2023-11-21T15:05:29;15.03;;;8.67;;